createdAt,value
2018-06-22T00:00:55.558Z,12.97
2018-06-22T00:03:24.977Z,15.50
2018-06-22T00:05:54.349Z,10.63
2018-06-22T00:08:23.207Z,12.80
2018-06-22T00:10:52.543Z,15.13
2018-06-22T00:13:22.004Z,11.97
2018-06-22T00:15:51.361Z,10.70
2018-06-22T00:18:20.769Z,10.30
2018-06-22T00:20:50.185Z,18.60
2018-06-22T00:23:19.634Z,11.23
2018-06-22T00:25:49.028Z,11.10
2018-06-22T00:28:18.384Z,19.20
2018-06-22T00:30:48.834Z,8.90
2018-06-22T00:33:18.188Z,8.73
2018-06-22T00:35:47.579Z,19.57
2018-06-22T00:38:17.018Z,15.73
2018-06-22T00:40:46.751Z,14.40
2018-06-22T00:43:16.108Z,13.70
2018-06-22T00:45:46.326Z,15.50
2018-06-22T00:48:15.678Z,13.23
2018-06-22T00:50:45.039Z,15.50
2018-06-22T00:53:25.343Z,13.93
2018-06-22T00:55:54.717Z,8.73
2018-06-22T00:58:24.208Z,8.63
2018-06-22T01:00:53.584Z,8.57
2018-06-22T01:03:22.955Z,16.20
2018-06-22T01:05:52.462Z,9.10
2018-06-22T01:08:21.849Z,14.00
2018-06-22T01:10:51.204Z,17.47
2018-06-22T01:13:20.597Z,10.03
2018-06-22T01:15:49.957Z,19.53
2018-06-22T01:18:20.089Z,12.23
2018-06-22T01:20:49.680Z,15.47
2018-06-22T01:23:19.113Z,12.40
2018-06-22T01:25:48.636Z,14.03
2018-06-22T01:28:17.999Z,6.87
2018-06-22T01:30:47.384Z,9.10
2018-06-22T01:33:17.378Z,6.57
2018-06-22T01:35:46.253Z,14.70
2018-06-22T01:38:15.671Z,13.70
2018-06-22T01:40:45.624Z,11.27
2018-06-22T01:43:14.992Z,6.80
2018-06-22T01:45:44.439Z,11.57
2018-06-22T01:48:13.904Z,12.63
2018-06-22T01:50:43.093Z,20.03
2018-06-22T01:53:12.444Z,10.00
2018-06-22T01:55:42.461Z,10.93
2018-06-22T01:58:11.941Z,12.70
2018-06-22T02:00:41.347Z,13.67
2018-06-22T02:03:10.819Z,11.20
2018-06-22T02:05:40.261Z,8.93
2018-06-22T02:08:09.634Z,15.10
2018-06-22T02:10:38.995Z,13.43
2018-06-22T02:13:08.392Z,8.80
2018-06-22T02:15:37.777Z,8.77
2018-06-22T02:18:07.132Z,10.90
2018-06-22T02:20:36.543Z,6.90
2018-06-22T02:23:06.167Z,11.57
2018-06-22T02:25:35.726Z,15.77
2018-06-22T02:28:05.121Z,9.70
2018-06-22T02:30:34.539Z,19.70
2018-06-22T02:33:04.001Z,10.27
2018-06-22T02:35:33.533Z,12.63
2018-06-22T02:38:02.899Z,10.97
2018-06-22T02:40:32.252Z,11.67
2018-06-22T02:43:01.666Z,10.07
2018-06-22T02:45:31.038Z,10.83
2018-06-22T02:48:00.462Z,8.40
2018-06-22T02:50:29.949Z,9.10
2018-06-22T02:53:00.322Z,11.83
2018-06-22T02:55:29.771Z,12.90
2018-06-22T02:57:59.690Z,7.63
2018-06-22T03:00:29.244Z,10.23
2018-06-22T03:03:07.178Z,9.00
2018-06-22T03:05:36.959Z,12.93
2018-06-22T03:08:06.663Z,11.03
2018-06-22T03:10:36.300Z,6.40
2018-06-22T03:13:07.797Z,22.63
2018-06-22T03:15:40.984Z,21.93
2018-06-22T03:18:10.401Z,13.57
2018-06-22T03:20:40.085Z,14.50
2018-06-22T03:23:09.600Z,15.20
2018-06-22T03:25:40.734Z,13.63
2018-06-22T03:28:10.478Z,7.53
2018-06-22T03:30:39.829Z,13.07
2018-06-22T03:33:09.187Z,11.37
2018-06-22T03:35:38.574Z,29.33
2018-06-22T03:38:08.047Z,21.50
2018-06-22T03:40:37.420Z,9.10
2018-06-22T03:43:06.835Z,15.00
2018-06-22T03:45:36.228Z,12.03
2018-06-22T03:48:06.115Z,14.03
2018-06-22T03:50:35.524Z,14.77
2018-06-22T03:53:04.884Z,26.27
2018-06-22T03:55:34.934Z,13.13
2018-06-22T03:58:04.279Z,19.20
2018-06-22T04:00:33.727Z,9.50
2018-06-22T04:03:03.125Z,13.60
2018-06-22T04:05:32.518Z,11.83
2018-06-22T04:08:01.921Z,23.23
2018-06-22T04:10:31.259Z,18.47
2018-06-22T04:13:00.781Z,16.57
2018-06-22T04:15:30.143Z,24.13
2018-06-22T04:17:59.494Z,21.70
2018-06-22T04:20:28.912Z,17.67
2018-06-22T04:22:58.750Z,25.50
2018-06-22T04:25:28.162Z,18.27
2018-06-22T04:27:57.502Z,17.27
2018-06-22T04:30:26.868Z,24.87
2018-06-22T04:32:56.264Z,15.03
2018-06-22T04:35:25.621Z,15.77
2018-06-22T04:37:55.013Z,14.57
2018-06-22T04:40:24.363Z,20.07
2018-06-22T04:42:53.855Z,22.40
2018-06-22T04:45:23.186Z,23.40
2018-06-22T04:47:52.517Z,17.90
2018-06-22T04:50:21.974Z,21.00
2018-06-22T04:52:51.338Z,22.70
2018-06-22T04:55:21.593Z,20.83
2018-06-22T04:57:50.927Z,27.43
2018-06-22T05:00:20.346Z,24.63
2018-06-22T05:02:49.716Z,14.70
2018-06-22T05:05:19.223Z,22.00
2018-06-22T05:07:48.600Z,20.80
2018-06-22T05:10:17.943Z,8.50
2018-06-22T05:12:47.455Z,18.73
2018-06-22T05:15:16.817Z,17.57
2018-06-22T05:17:46.239Z,13.37
2018-06-22T05:20:15.651Z,19.60
2018-06-22T05:22:45.093Z,16.53
2018-06-22T05:25:14.500Z,10.23
2018-06-22T05:27:43.873Z,17.77
2018-06-22T05:30:13.304Z,10.50
2018-06-22T05:32:42.645Z,12.23
2018-06-22T05:35:11.978Z,9.20
2018-06-22T05:37:41.389Z,12.67
2018-06-22T05:40:10.741Z,7.07
2018-06-22T05:42:39.584Z,8.47
2018-06-22T05:45:08.983Z,15.00
2018-06-22T05:47:38.385Z,8.03
2018-06-22T05:50:08.236Z,16.43
2018-06-22T05:52:37.618Z,6.23
2018-06-22T05:55:06.979Z,7.70
2018-06-22T05:57:36.379Z,10.37
2018-06-22T06:00:05.971Z,10.20
2018-06-22T06:02:35.354Z,13.20
2018-06-22T06:05:04.764Z,8.97
2018-06-22T06:07:34.282Z,14.80
2018-06-22T06:10:03.666Z,10.07
2018-06-22T06:12:33.041Z,10.20
2018-06-22T06:15:02.501Z,9.20
2018-06-22T06:17:31.852Z,14.60
2018-06-22T06:20:01.219Z,14.13
2018-06-22T06:22:30.650Z,19.20
2018-06-22T06:25:00.063Z,13.37
2018-06-22T06:27:29.795Z,12.80
2018-06-22T06:29:59.184Z,16.37
2018-06-22T06:32:28.635Z,14.90
2018-06-22T06:34:57.990Z,9.57
2018-06-22T06:37:27.357Z,13.60
2018-06-22T06:39:56.767Z,12.40
2018-06-22T06:42:26.084Z,9.93
2018-06-22T06:44:55.525Z,6.07
2018-06-22T06:47:24.875Z,11.47
2018-06-22T06:49:54.265Z,8.57
2018-06-22T06:52:23.625Z,10.50
2018-06-22T06:54:53.017Z,4.80
2018-06-22T06:57:22.397Z,10.13
2018-06-22T06:59:51.798Z,14.77
2018-06-22T07:02:21.173Z,11.80
2018-06-22T07:04:50.531Z,11.20
2018-06-22T07:07:19.940Z,5.07
2018-06-22T07:09:49.292Z,8.07
2018-06-22T07:12:18.651Z,6.90
2018-06-22T07:14:48.198Z,7.20
2018-06-22T07:17:17.602Z,11.47
2018-06-22T07:19:47.090Z,10.57
2018-06-22T07:22:16.471Z,9.23
2018-06-22T07:24:46.129Z,17.57
2018-06-22T07:27:15.488Z,7.20
2018-06-22T07:29:45.285Z,6.83
2018-06-22T07:32:14.657Z,11.67
2018-06-22T07:34:44.225Z,9.40
2018-06-22T07:37:13.720Z,10.33
2018-06-22T07:39:43.130Z,8.10
2018-06-22T07:42:12.575Z,10.10
2018-06-22T07:44:41.960Z,6.77
2018-06-22T07:47:11.365Z,9.57
2018-06-22T07:49:41.819Z,7.27
2018-06-22T07:52:11.148Z,9.90
2018-06-22T07:54:40.523Z,13.63
2018-06-22T07:57:09.947Z,14.77
2018-06-22T07:59:38.777Z,7.07
2018-06-22T08:02:08.197Z,7.07
2018-06-22T08:04:37.664Z,9.87
2018-06-22T08:07:07.049Z,7.37
2018-06-22T08:09:36.462Z,8.43
2018-06-22T08:12:05.914Z,6.40
2018-06-22T08:14:35.252Z,7.50
2018-06-22T08:17:04.584Z,3.73
2018-06-22T08:19:33.864Z,10.70
2018-06-22T08:22:03.217Z,6.63
2018-06-22T08:24:32.527Z,5.47
2018-06-22T08:27:01.873Z,7.37
2018-06-22T08:29:31.843Z,9.33
2018-06-22T08:32:01.499Z,12.30
2018-06-22T08:34:30.833Z,11.57
2018-06-22T08:37:00.135Z,14.00
2018-06-22T08:39:29.481Z,7.60
2018-06-22T08:41:58.828Z,9.47
2018-06-22T08:44:28.276Z,9.83
2018-06-22T08:46:57.609Z,8.10
2018-06-22T08:49:26.929Z,8.17
2018-06-22T08:51:57.113Z,8.30
2018-06-22T08:54:26.807Z,9.60
2018-06-22T08:56:56.591Z,10.20
2018-06-22T08:59:25.921Z,15.57
2018-06-22T09:01:55.681Z,15.20
2018-06-22T09:04:25.129Z,15.53
2018-06-22T09:06:54.417Z,11.27
2018-06-22T09:09:23.706Z,12.30
2018-06-22T09:11:55.626Z,8.93
2018-06-22T09:14:28.246Z,7.50
2018-06-22T09:16:58.605Z,10.80
2018-06-22T09:19:30.769Z,12.17
2018-06-22T09:22:02.246Z,3.97
2018-06-22T09:27:22.411Z,13.53
2018-06-22T09:29:54.970Z,3.90
2018-06-22T09:33:00.212Z,5.87
2018-06-22T09:35:30.320Z,10.83
2018-06-22T09:38:02.118Z,6.63
2018-06-22T09:40:34.248Z,6.40
2018-06-22T09:43:03.592Z,8.67
2018-06-22T09:45:32.784Z,11.60
2018-06-22T09:48:02.056Z,5.67
2018-06-22T09:50:30.736Z,5.00
2018-06-22T09:52:59.971Z,5.17
2018-06-22T09:55:36.062Z,8.13
2018-06-22T09:58:05.704Z,7.40
2018-06-22T10:00:35.198Z,6.60
2018-06-22T10:03:04.474Z,2.80
2018-06-22T10:05:33.647Z,7.63
2018-06-22T10:08:02.819Z,6.60
2018-06-22T10:10:31.938Z,6.17
2018-06-22T10:13:01.212Z,5.93
2018-06-22T10:15:29.957Z,11.93
2018-06-22T10:17:59.480Z,7.00
2018-06-22T10:20:28.674Z,11.67
2018-06-22T10:22:57.812Z,14.03
2018-06-22T10:25:26.954Z,6.50
2018-06-22T10:28:04.111Z,11.83
2018-06-22T10:30:38.074Z,8.87
2018-06-22T10:33:07.399Z,11.70
2018-06-22T10:35:36.590Z,10.67
2018-06-22T10:38:05.895Z,7.10
2018-06-22T10:40:35.323Z,14.50
2018-06-22T10:43:04.728Z,6.50
2018-06-22T10:45:34.056Z,6.33
2018-06-22T10:48:03.395Z,11.93
2018-06-22T10:50:32.649Z,9.07
2018-06-22T10:53:01.910Z,6.00
2018-06-22T10:55:31.170Z,11.27
2018-06-22T10:58:00.442Z,7.87
2018-06-22T11:00:29.667Z,14.80
2018-06-22T11:02:58.880Z,10.13
2018-06-22T11:05:28.132Z,7.03
2018-06-22T11:07:57.617Z,3.77
2018-06-22T11:10:26.832Z,3.40
2018-06-22T11:12:56.019Z,4.20
2018-06-22T11:15:25.292Z,3.73
2018-06-22T11:17:54.548Z,4.10
2018-06-22T11:20:23.864Z,2.60
2018-06-22T11:22:53.123Z,6.80
2018-06-22T11:25:22.287Z,3.20
2018-06-22T11:27:51.823Z,6.00
2018-06-22T11:30:21.059Z,4.40
2018-06-22T11:32:50.383Z,5.10
2018-06-22T11:35:19.753Z,12.30
2018-06-22T11:37:49.215Z,6.83
2018-06-22T11:40:18.555Z,6.30
2018-06-22T11:42:47.882Z,6.80
2018-06-22T11:45:17.389Z,8.00
2018-06-22T11:47:46.714Z,8.00
2018-06-22T11:50:16.239Z,10.13
2018-06-22T11:52:45.581Z,9.40
2018-06-22T11:55:15.150Z,9.23
2018-06-22T11:57:44.596Z,9.23
2018-06-22T12:00:14.079Z,7.73
2018-06-22T12:02:43.445Z,7.03
2018-06-22T12:05:12.841Z,5.17
2018-06-22T12:07:42.193Z,5.50
2018-06-22T12:10:11.545Z,8.50
2018-06-22T12:12:40.616Z,11.67
2018-06-22T12:15:10.010Z,9.63
2018-06-22T12:17:39.325Z,10.83
2018-06-22T12:20:08.896Z,7.40
2018-06-22T12:22:38.205Z,6.53
2018-06-22T12:25:07.838Z,10.13
2018-06-22T12:27:37.260Z,8.33
2018-06-22T12:30:07.024Z,4.57
2018-06-22T12:32:36.398Z,7.60
2018-06-22T12:35:06.085Z,3.67
2018-06-22T12:37:35.397Z,3.37
2018-06-22T12:40:04.983Z,5.90
2018-06-22T12:42:34.297Z,5.00
2018-06-22T12:45:03.700Z,4.03
2018-06-22T12:47:47.742Z,7.13
2018-06-22T12:50:17.127Z,6.57
2018-06-22T12:52:46.437Z,9.73
2018-06-22T12:55:15.869Z,8.70
2018-06-22T12:57:45.292Z,7.87
2018-06-22T13:00:14.692Z,5.43
2018-06-22T13:02:44.228Z,4.60
2018-06-22T13:05:13.593Z,5.23
2018-06-22T13:07:42.992Z,9.60
2018-06-22T13:10:12.366Z,1.93
2018-06-22T13:12:41.755Z,1.10
2018-06-22T13:15:11.039Z,3.17
2018-06-22T13:17:40.643Z,5.67
2018-06-22T13:20:10.082Z,23.90
2018-06-22T13:22:39.426Z,3.37
2018-06-22T13:25:08.913Z,5.23
2018-06-22T13:27:38.247Z,6.97
2018-06-22T13:30:07.839Z,2.93
2018-06-22T13:32:37.238Z,6.17
2018-06-22T13:35:07.397Z,6.97
2018-06-22T13:37:36.925Z,12.07
2018-06-22T13:40:06.905Z,9.10
2018-06-22T13:42:36.302Z,9.53
2018-06-22T13:45:06.106Z,3.27
2018-06-22T13:47:35.582Z,7.00
2018-06-22T13:50:05.454Z,6.60
2018-06-22T13:52:34.836Z,6.03
2018-06-22T13:55:04.227Z,6.00
2018-06-22T13:57:33.839Z,7.20
2018-06-22T14:00:03.177Z,5.73
2018-06-22T14:02:32.658Z,5.93
2018-06-22T14:05:07.151Z,9.63
2018-06-22T14:07:36.719Z,11.70
2018-06-22T14:10:06.594Z,11.37
2018-06-22T14:12:36.163Z,7.90
2018-06-22T14:15:05.897Z,6.90
2018-06-22T14:17:35.543Z,23.30
2018-06-22T14:20:05.371Z,13.93
2018-06-22T14:22:34.778Z,6.37
2018-06-22T14:25:04.357Z,8.80
2018-06-22T14:27:33.713Z,8.30
2018-06-22T14:30:03.067Z,10.90
2018-06-22T14:32:32.606Z,6.63
2018-06-22T14:35:02.000Z,15.53
2018-06-22T14:37:31.385Z,5.73
2018-06-22T14:40:00.937Z,5.40
2018-06-22T14:42:30.277Z,5.73
2018-06-22T14:44:59.555Z,5.87
2018-06-22T14:47:29.683Z,5.37
2018-06-22T14:49:59.037Z,8.63
2018-06-22T14:52:28.944Z,7.80
2018-06-22T14:55:03.495Z,7.87
2018-06-22T14:57:38.902Z,9.77
2018-06-22T15:00:13.798Z,2.57
2018-06-22T15:02:48.471Z,1.33
2018-06-22T15:05:23.101Z,5.00
2018-06-22T15:07:54.453Z,4.13
2018-06-22T15:10:24.011Z,6.73
2018-06-22T15:12:53.538Z,6.90
2018-06-22T15:15:22.910Z,3.83
2018-06-22T15:17:54.620Z,5.27
2018-06-22T15:20:24.506Z,2.73
2018-06-22T15:22:53.900Z,3.90
2018-06-22T15:25:23.243Z,6.73
2018-06-22T15:27:53.218Z,2.53
2018-06-22T15:30:22.493Z,6.07
2018-06-22T15:32:51.942Z,9.17
2018-06-22T15:35:26.404Z,5.63
2018-06-22T15:38:00.974Z,4.63
2018-06-22T15:40:35.398Z,3.03
2018-06-22T15:43:09.934Z,2.30
2018-06-22T15:45:44.822Z,5.20
2018-06-22T15:48:19.132Z,6.43
2018-06-22T15:50:54.182Z,6.73
2018-06-22T15:53:28.595Z,5.13
2018-06-22T15:56:03.127Z,7.90
2018-06-22T15:58:33.281Z,4.73
2018-06-22T16:01:02.777Z,10.83
2018-06-22T16:03:37.196Z,4.90
2018-06-22T16:06:07.194Z,2.67
2018-06-22T16:08:36.624Z,6.13
2018-06-22T16:11:06.246Z,8.53
2018-06-22T16:13:35.520Z,13.37
2018-06-22T16:16:10.198Z,8.40
2018-06-22T16:18:45.222Z,6.50
2018-06-22T16:21:19.583Z,4.17
2018-06-22T16:23:54.658Z,6.37
2018-06-22T16:26:29.054Z,4.83
2018-06-22T16:28:58.519Z,4.47
2018-06-22T16:31:27.896Z,5.03
2018-06-22T16:33:57.713Z,8.27
2018-06-22T16:36:28.143Z,3.87
2018-06-22T16:38:57.856Z,7.63
2018-06-22T16:41:27.419Z,8.57
2018-06-22T16:43:58.081Z,6.50
2018-06-22T16:46:27.675Z,6.50
2018-06-22T16:48:57.253Z,9.13
2018-06-22T16:51:26.697Z,9.03
2018-06-22T16:53:56.060Z,7.77
2018-06-22T16:56:25.823Z,6.63
2018-06-22T16:58:55.323Z,9.97
2018-06-22T17:01:24.643Z,10.47
2018-06-22T17:03:54.074Z,11.93
2018-06-22T17:06:23.449Z,12.00
2018-06-22T17:08:58.091Z,7.73
2018-06-22T17:11:32.126Z,8.80
2018-06-22T17:14:06.602Z,10.67
2018-06-22T17:16:40.944Z,8.97
2018-06-22T17:19:09.810Z,11.00
2018-06-22T17:21:39.387Z,8.77
2018-06-22T17:24:08.737Z,6.70
2018-06-22T17:26:38.025Z,13.17
2018-06-22T17:29:07.417Z,14.17
2018-06-22T17:31:36.765Z,13.20
2018-06-22T17:34:06.631Z,8.73
2018-06-22T17:36:35.954Z,6.30
2018-06-22T17:39:07.484Z,9.40
2018-06-22T17:41:36.800Z,8.90
2018-06-22T17:44:06.556Z,7.53
2018-06-22T17:46:35.977Z,8.07
2018-06-22T17:49:05.378Z,10.13
2018-06-22T17:51:34.718Z,7.03
2018-06-22T17:54:04.154Z,11.63
2018-06-22T17:56:33.892Z,6.70
2018-06-22T17:59:08.488Z,9.90
2018-06-22T18:01:42.927Z,16.20
2018-06-22T18:04:17.397Z,7.00
2018-06-22T18:06:51.913Z,14.43
2018-06-22T18:09:26.232Z,12.77
2018-06-22T18:12:00.796Z,15.97
2018-06-22T18:14:30.118Z,9.47
2018-06-22T18:16:59.447Z,17.93
2018-06-22T18:19:28.759Z,18.77
2018-06-22T18:21:58.073Z,22.47
2018-06-22T18:24:27.491Z,17.30
2018-06-22T18:26:56.956Z,37.47
2018-06-22T18:29:26.349Z,9.00
2018-06-22T18:31:55.880Z,20.57
2018-06-22T18:34:25.288Z,10.10
2018-06-22T18:36:54.609Z,9.20
2018-06-22T18:39:24.037Z,11.83
2018-06-22T18:41:53.361Z,16.50
2018-06-22T18:44:22.686Z,11.77
2018-06-22T18:46:52.118Z,12.27
2018-06-22T18:49:21.500Z,18.20
2018-06-22T18:51:55.982Z,25.10
2018-06-22T18:54:31.112Z,14.50
2018-06-22T18:57:05.580Z,6.67
2018-06-22T18:59:41.538Z,13.97
2018-06-22T19:02:15.897Z,15.53
2018-06-22T19:04:45.285Z,11.43
2018-06-22T19:07:14.582Z,13.57
2018-06-22T19:09:44.077Z,9.50
2018-06-22T19:12:13.409Z,9.03
2018-06-22T19:14:42.760Z,13.87
2018-06-22T19:17:12.161Z,15.53
2018-06-22T19:19:41.528Z,16.10
2018-06-22T19:22:10.826Z,16.73
2018-06-22T19:24:50.332Z,11.27
2018-06-22T19:27:28.539Z,6.40
2018-06-22T19:29:57.994Z,18.80
2018-06-22T19:32:27.288Z,20.80
2018-06-22T19:35:01.896Z,6.77
2018-06-22T19:37:31.283Z,13.00
2018-06-22T19:40:00.386Z,11.17
2018-06-22T19:42:29.696Z,24.83
2018-06-22T19:45:04.214Z,6.13
2018-06-22T19:47:38.437Z,5.07
2018-06-22T19:51:19.367Z,7.70
2018-06-22T19:53:54.600Z,7.10
2018-06-22T19:56:23.984Z,12.20
2018-06-22T19:58:53.321Z,10.47
2018-06-22T20:01:22.605Z,18.00
2018-06-22T20:03:52.327Z,16.03
2018-06-22T20:06:21.630Z,13.30
2018-06-22T20:08:50.936Z,11.37
2018-06-22T20:11:20.305Z,31.77
2018-06-22T20:13:49.679Z,16.10
2018-06-22T20:16:19.323Z,17.30
2018-06-22T20:18:48.696Z,11.37
2018-06-22T20:21:18.081Z,8.90
2018-06-22T20:23:47.817Z,14.87
2018-06-22T20:26:17.142Z,15.27
2018-06-22T20:28:46.489Z,15.40
2018-06-22T20:31:20.882Z,14.37
2018-06-22T20:33:50.286Z,12.07
2018-06-22T20:36:24.712Z,11.63
2018-06-22T20:38:59.182Z,8.70
2018-06-22T20:41:33.611Z,13.77
2018-06-22T20:44:07.914Z,16.57
2018-06-22T20:46:42.357Z,18.90
2018-06-22T20:49:16.712Z,12.60
2018-06-22T20:51:46.102Z,12.03
2018-06-22T20:54:15.456Z,17.87
2018-06-22T20:56:45.436Z,17.57
2018-06-22T20:59:14.804Z,17.90
2018-06-22T21:01:44.511Z,21.23
2018-06-22T21:04:14.225Z,28.70
2018-06-22T21:06:43.488Z,16.90
2018-06-22T21:09:13.369Z,24.43
2018-06-22T21:11:42.722Z,19.87
2018-06-22T21:14:12.028Z,10.43
2018-06-22T21:16:41.963Z,13.70
2018-06-22T21:19:11.402Z,32.40
2018-06-22T21:21:45.611Z,21.43
2018-06-22T21:24:15.098Z,14.47
2018-06-22T21:26:44.427Z,15.77
2018-06-22T21:29:18.889Z,24.13
2018-06-22T21:31:53.272Z,22.67
2018-06-22T21:34:27.772Z,14.13
2018-06-22T21:37:04.706Z,22.03
2018-06-22T21:39:34.033Z,14.43
2018-06-22T21:42:03.466Z,34.03
2018-06-22T21:44:32.820Z,20.17
2018-06-22T21:47:03.099Z,23.17
2018-06-22T21:49:32.383Z,18.00
2018-06-22T21:52:01.822Z,18.70
2018-06-22T21:54:30.638Z,11.77
2018-06-22T21:56:59.953Z,18.17
2018-06-22T21:59:29.441Z,20.33
2018-06-22T22:01:58.876Z,23.80
2018-06-22T22:04:28.755Z,38.50
2018-06-22T22:06:58.351Z,14.77
2018-06-22T22:09:31.764Z,12.80
2018-06-22T22:12:01.145Z,32.00
2018-06-22T22:14:29.915Z,20.33
2018-06-22T22:16:59.309Z,18.07
2018-06-22T22:19:28.691Z,35.40
2018-06-22T22:21:58.220Z,26.37
2018-06-22T22:24:27.781Z,35.73
2018-06-22T22:26:57.370Z,29.80
2018-06-22T22:29:26.688Z,30.10
2018-06-22T22:31:56.925Z,21.60
2018-06-22T22:34:26.198Z,20.63
2018-06-22T22:36:55.526Z,15.73
2018-06-22T22:39:25.427Z,21.67
2018-06-22T22:41:54.703Z,15.17
2018-06-22T22:44:24.128Z,26.73
2018-06-22T22:46:53.456Z,26.50
2018-06-22T22:49:22.834Z,28.63
2018-06-22T22:51:52.253Z,26.57
2018-06-22T22:54:21.543Z,20.63
2018-06-22T22:56:50.890Z,29.60
2018-06-22T22:59:20.219Z,19.93
2018-06-22T23:01:49.656Z,18.87
2018-06-22T23:04:18.948Z,25.20
2018-06-22T23:06:48.263Z,23.47
2018-06-22T23:09:17.639Z,16.70
2018-06-22T23:11:47.882Z,14.80
2018-06-22T23:14:18.376Z,24.03
2018-06-22T23:16:47.213Z,19.73
2018-06-22T23:19:16.821Z,20.33
2018-06-22T23:21:46.668Z,17.43
2018-06-22T23:24:15.971Z,17.93
2018-06-22T23:26:45.297Z,17.80
2018-06-22T23:29:14.662Z,20.37
2018-06-22T23:31:44.038Z,18.33
2018-06-22T23:34:13.377Z,17.73
2018-06-22T23:36:42.704Z,13.40
2018-06-22T23:39:12.097Z,24.43
2018-06-22T23:41:41.581Z,16.80
2018-06-22T23:44:10.913Z,18.87
2018-06-22T23:46:40.205Z,21.53
2018-06-22T23:49:09.541Z,20.50
2018-06-22T23:51:38.889Z,28.53
2018-06-22T23:54:08.468Z,16.20
2018-06-22T23:56:37.784Z,15.77
2018-06-22T23:59:07.378Z,21.63
